sensor_id;sensor_type;location;lat;lon;timestamp;P1;durP1;ratioP1;P2;durP2;ratioP2
19891;SDS011;10108;50.142;8.724;2023-05-02T00:02:08;11.35;;;6.72;;
19891;SDS011;10108;50.142;8.724;2023-05-02T00:04:34;10.70;;;6.80;;
19891;SDS011;10108;50.142;8.724;2023-05-02T00:07:00;8.77;;;6.70;;
19891;SDS011;10108;50.142;8.724;2023-05-02T00:09:28;9.95;;;7.35;;
19891;SDS011;10108;50.142;8.724;2023-05-02T00:11:54;9.60;;;7.13;;
19891;SDS011;10108;50.142;8.724;2023-05-02T00:14:20;12.25;;;8.00;;
19891;SDS011;10108;50.142;8.724;2023-05-02T00:16:46;11.48;;;7.63;;
19891;SDS011;10108;50.142;8.724;2023-05-02T00:19:13;12.88;;;7.53;;
19891;SDS011;10108;50.142;8.724;2023-05-02T00:21:39;10.73;;;7.03;;
19891;SDS011;10108;50.142;8.724;2023-05-02T00:24:05;11.25;;;7.78;;
19891;SDS011;10108;50.142;8.724;2023-05-02T00:26:31;13.90;;;7.53;;
19891;SDS011;10108;50.142;8.724;2023-05-02T00:28:57;10.52;;;7.15;;
19891;SDS011;10108;50.142;8.724;2023-05-02T00:31:23;10.43;;;7.15;;
19891;SDS011;10108;50.142;8.724;2023-05-02T00:33:50;12.00;;;8.40;;
19891;SDS011;10108;50.142;8.724;2023-05-02T00:36:16;11.90;;;8.50;;
19891;SDS011;10108;50.142;8.724;2023-05-02T00:38:44;11.15;;;7.20;;
19891;SDS011;10108;50.142;8.724;2023-05-02T00:41:10;10.65;;;8.10;;
19891;SDS011;10108;50.142;8.724;2023-05-02T00:43:37;11.95;;;8.70;;
19891;SDS011;10108;50.142;8.724;2023-05-02T00:46:06;16.67;;;9.27;;
19891;SDS011;10108;50.142;8.724;2023-05-02T00:48:33;12.27;;;8.52;;
19891;SDS011;10108;50.142;8.724;2023-05-02T00:51:01;14.90;;;8.63;;
19891;SDS011;10108;50.142;8.724;2023-05-02T00:53:34;14.43;;;8.82;;
19891;SDS011;10108;50.142;8.724;2023-05-02T00:56:00;12.27;;;8.68;;
19891;SDS011;10108;50.142;8.724;2023-05-02T00:58:27;12.00;;;7.85;;
19891;SDS011;10108;50.142;8.724;2023-05-02T01:09:15;13.52;;;9.60;;
19891;SDS011;10108;50.142;8.724;2023-05-02T01:12:14;14.52;;;10.20;;
19891;SDS011;10108;50.142;8.724;2023-05-02T01:14:56;17.15;;;10.18;;
19891;SDS011;10108;50.142;8.724;2023-05-02T01:17:25;13.75;;;9.52;;
19891;SDS011;10108;50.142;8.724;2023-05-02T01:19:56;15.48;;;10.30;;
19891;SDS011;10108;50.142;8.724;2023-05-02T01:22:25;15.13;;;9.82;;
19891;SDS011;10108;50.142;8.724;2023-05-02T01:25:06;15.95;;;10.57;;
19891;SDS011;10108;50.142;8.724;2023-05-02T01:27:42;15.77;;;10.60;;
19891;SDS011;10108;50.142;8.724;2023-05-02T01:30:12;13.70;;;10.35;;
19891;SDS011;10108;50.142;8.724;2023-05-02T01:32:42;18.20;;;10.23;;
19891;SDS011;10108;50.142;8.724;2023-05-02T01:35:15;17.27;;;9.95;;
19891;SDS011;10108;50.142;8.724;2023-05-02T01:37:45;14.40;;;10.05;;
19891;SDS011;10108;50.142;8.724;2023-05-02T01:40:17;18.23;;;10.75;;
19891;SDS011;10108;50.142;8.724;2023-05-02T01:42:45;14.88;;;10.20;;
19891;SDS011;10108;50.142;8.724;2023-05-02T01:45:16;13.05;;;9.75;;
19891;SDS011;10108;50.142;8.724;2023-05-02T01:47:43;15.80;;;10.52;;
19891;SDS011;10108;50.142;8.724;2023-05-02T01:50:12;16.70;;;10.77;;
19891;SDS011;10108;50.142;8.724;2023-05-02T01:52:45;18.73;;;11.07;;
19891;SDS011;10108;50.142;8.724;2023-05-02T01:55:14;14.65;;;10.07;;
19891;SDS011;10108;50.142;8.724;2023-05-02T01:57:42;15.82;;;10.52;;
19891;SDS011;10108;50.142;8.724;2023-05-02T02:00:10;16.88;;;10.48;;
19891;SDS011;10108;50.142;8.724;2023-05-02T02:02:41;16.33;;;11.10;;
19891;SDS011;10108;50.142;8.724;2023-05-02T02:05:09;18.58;;;11.20;;
19891;SDS011;10108;50.142;8.724;2023-05-02T02:07:37;16.85;;;10.68;;
19891;SDS011;10108;50.142;8.724;2023-05-02T02:10:03;14.90;;;9.63;;
19891;SDS011;10108;50.142;8.724;2023-05-02T02:12:31;14.35;;;10.40;;
19891;SDS011;10108;50.142;8.724;2023-05-02T02:15:17;14.57;;;9.95;;
19891;SDS011;10108;50.142;8.724;2023-05-02T02:17:52;16.67;;;11.13;;
19891;SDS011;10108;50.142;8.724;2023-05-02T02:20:23;17.08;;;11.15;;
19891;SDS011;10108;50.142;8.724;2023-05-02T02:22:51;15.98;;;11.07;;
19891;SDS011;10108;50.142;8.724;2023-05-02T02:25:19;18.58;;;11.73;;
19891;SDS011;10108;50.142;8.724;2023-05-02T02:27:46;18.60;;;11.63;;
19891;SDS011;10108;50.142;8.724;2023-05-02T02:30:13;15.73;;;11.43;;
19891;SDS011;10108;50.142;8.724;2023-05-02T02:32:41;19.05;;;12.57;;
19891;SDS011;10108;50.142;8.724;2023-05-02T02:35:07;18.35;;;13.13;;
19891;SDS011;10108;50.142;8.724;2023-05-02T02:37:34;20.20;;;13.65;;
19891;SDS011;10108;50.142;8.724;2023-05-02T02:40:22;19.23;;;12.80;;
19891;SDS011;10108;50.142;8.724;2023-05-02T02:51:54;19.70;;;13.60;;
19891;SDS011;10108;50.142;8.724;2023-05-02T02:54:44;18.80;;;13.18;;
19891;SDS011;10108;50.142;8.724;2023-05-02T02:57:25;20.33;;;13.43;;
19891;SDS011;10108;50.142;8.724;2023-05-02T03:02:35;19.75;;;13.32;;
19891;SDS011;10108;50.142;8.724;2023-05-02T03:05:03;25.25;;;14.80;;
19891;SDS011;10108;50.142;8.724;2023-05-02T03:07:31;20.70;;;14.75;;
19891;SDS011;10108;50.142;8.724;2023-05-02T03:10:01;22.60;;;15.75;;
19891;SDS011;10108;50.142;8.724;2023-05-02T03:12:28;23.50;;;15.43;;
19891;SDS011;10108;50.142;8.724;2023-05-02T03:14:57;23.15;;;15.43;;
19891;SDS011;10108;50.142;8.724;2023-05-02T03:17:39;26.45;;;15.82;;
19891;SDS011;10108;50.142;8.724;2023-05-02T03:20:05;25.23;;;15.85;;
19891;SDS011;10108;50.142;8.724;2023-05-02T03:22:32;24.83;;;15.85;;
19891;SDS011;10108;50.142;8.724;2023-05-02T03:24:59;25.45;;;16.17;;
19891;SDS011;10108;50.142;8.724;2023-05-02T03:27:25;23.77;;;16.10;;
19891;SDS011;10108;50.142;8.724;2023-05-02T03:29:52;26.80;;;17.25;;
19891;SDS011;10108;50.142;8.724;2023-05-02T03:32:19;24.38;;;16.38;;
19891;SDS011;10108;50.142;8.724;2023-05-02T03:34:45;27.08;;;16.63;;
19891;SDS011;10108;50.142;8.724;2023-05-02T03:37:12;27.25;;;17.45;;
19891;SDS011;10108;50.142;8.724;2023-05-02T03:39:38;25.77;;;16.42;;
19891;SDS011;10108;50.142;8.724;2023-05-02T03:42:04;27.08;;;17.40;;
19891;SDS011;10108;50.142;8.724;2023-05-02T03:44:30;22.85;;;15.82;;
19891;SDS011;10108;50.142;8.724;2023-05-02T03:46:57;23.42;;;16.02;;
19891;SDS011;10108;50.142;8.724;2023-05-02T03:49:23;26.55;;;17.80;;
19891;SDS011;10108;50.142;8.724;2023-05-02T03:51:51;26.15;;;16.70;;
19891;SDS011;10108;50.142;8.724;2023-05-02T03:54:23;27.02;;;17.17;;
19891;SDS011;10108;50.142;8.724;2023-05-02T03:56:49;27.98;;;18.85;;
19891;SDS011;10108;50.142;8.724;2023-05-02T03:59:23;25.10;;;17.90;;
19891;SDS011;10108;50.142;8.724;2023-05-02T04:01:50;27.05;;;18.95;;
19891;SDS011;10108;50.142;8.724;2023-05-02T04:04:19;27.25;;;19.13;;
19891;SDS011;10108;50.142;8.724;2023-05-02T04:06:48;28.20;;;18.90;;
19891;SDS011;10108;50.142;8.724;2023-05-02T04:09:15;27.42;;;18.48;;
19891;SDS011;10108;50.142;8.724;2023-05-02T04:11:48;27.83;;;20.08;;
19891;SDS011;10108;50.142;8.724;2023-05-02T04:14:15;33.30;;;20.48;;
19891;SDS011;10108;50.142;8.724;2023-05-02T04:16:46;27.98;;;19.23;;
19891;SDS011;10108;50.142;8.724;2023-05-02T04:19:14;29.75;;;20.52;;
19891;SDS011;10108;50.142;8.724;2023-05-02T04:21:41;28.42;;;20.67;;
19891;SDS011;10108;50.142;8.724;2023-05-02T04:24:08;29.00;;;20.55;;
19891;SDS011;10108;50.142;8.724;2023-05-02T04:26:35;30.25;;;20.88;;
19891;SDS011;10108;50.142;8.724;2023-05-02T04:29:06;28.15;;;19.35;;
19891;SDS011;10108;50.142;8.724;2023-05-02T04:31:33;32.47;;;22.08;;
19891;SDS011;10108;50.142;8.724;2023-05-02T04:34:00;31.73;;;20.98;;
19891;SDS011;10108;50.142;8.724;2023-05-02T04:36:31;29.63;;;20.50;;
19891;SDS011;10108;50.142;8.724;2023-05-02T04:38:59;29.77;;;20.70;;
19891;SDS011;10108;50.142;8.724;2023-05-02T04:41:25;28.73;;;20.23;;
19891;SDS011;10108;50.142;8.724;2023-05-02T04:43:57;30.27;;;19.80;;
19891;SDS011;10108;50.142;8.724;2023-05-02T04:46:24;29.33;;;19.58;;
19891;SDS011;10108;50.142;8.724;2023-05-02T04:48:50;27.55;;;19.50;;
19891;SDS011;10108;50.142;8.724;2023-05-02T04:51:16;31.83;;;20.58;;
19891;SDS011;10108;50.142;8.724;2023-05-02T04:53:44;33.63;;;21.00;;
19891;SDS011;10108;50.142;8.724;2023-05-02T04:56:10;33.42;;;20.98;;
19891;SDS011;10108;50.142;8.724;2023-05-02T04:58:37;33.17;;;21.48;;
19891;SDS011;10108;50.142;8.724;2023-05-02T05:01:07;33.65;;;23.13;;
19891;SDS011;10108;50.142;8.724;2023-05-02T05:03:33;35.42;;;23.73;;
19891;SDS011;10108;50.142;8.724;2023-05-02T05:06:00;37.38;;;24.70;;
19891;SDS011;10108;50.142;8.724;2023-05-02T05:08:27;36.67;;;23.95;;
19891;SDS011;10108;50.142;8.724;2023-05-02T05:10:53;39.95;;;25.27;;
19891;SDS011;10108;50.142;8.724;2023-05-02T05:13:21;42.05;;;26.92;;
19891;SDS011;10108;50.142;8.724;2023-05-02T05:15:48;41.13;;;27.13;;
19891;SDS011;10108;50.142;8.724;2023-05-02T05:18:16;40.78;;;27.08;;
19891;SDS011;10108;50.142;8.724;2023-05-02T05:20:42;43.40;;;27.20;;
19891;SDS011;10108;50.142;8.724;2023-05-02T05:23:11;40.08;;;25.42;;
19891;SDS011;10108;50.142;8.724;2023-05-02T05:25:37;42.78;;;27.73;;
19891;SDS011;10108;50.142;8.724;2023-05-02T05:28:04;41.17;;;26.58;;
19891;SDS011;10108;50.142;8.724;2023-05-02T05:30:33;44.25;;;26.45;;
19891;SDS011;10108;50.142;8.724;2023-05-02T05:33:02;40.22;;;25.13;;
19891;SDS011;10108;50.142;8.724;2023-05-02T05:35:28;41.38;;;26.38;;
19891;SDS011;10108;50.142;8.724;2023-05-02T05:37:56;43.38;;;27.48;;
19891;SDS011;10108;50.142;8.724;2023-05-02T05:40:22;44.55;;;27.45;;
19891;SDS011;10108;50.142;8.724;2023-05-02T05:42:53;43.83;;;26.63;;
19891;SDS011;10108;50.142;8.724;2023-05-02T05:45:25;44.25;;;26.45;;
19891;SDS011;10108;50.142;8.724;2023-05-02T05:47:52;45.05;;;27.50;;
19891;SDS011;10108;50.142;8.724;2023-05-02T05:50:20;40.95;;;25.83;;
19891;SDS011;10108;50.142;8.724;2023-05-02T05:52:46;40.08;;;25.77;;
19891;SDS011;10108;50.142;8.724;2023-05-02T05:55:12;40.38;;;26.38;;
19891;SDS011;10108;50.142;8.724;2023-05-02T05:57:38;39.92;;;25.67;;
19891;SDS011;10108;50.142;8.724;2023-05-02T06:00:06;42.38;;;26.35;;
19891;SDS011;10108;50.142;8.724;2023-05-02T06:02:41;40.50;;;23.73;;
19891;SDS011;10108;50.142;8.724;2023-05-02T06:05:10;39.80;;;25.58;;
19891;SDS011;10108;50.142;8.724;2023-05-02T06:07:36;43.22;;;26.73;;
19891;SDS011;10108;50.142;8.724;2023-05-02T06:10:03;39.58;;;24.95;;
19891;SDS011;10108;50.142;8.724;2023-05-02T06:12:32;41.50;;;25.42;;
19891;SDS011;10108;50.142;8.724;2023-05-02T06:14:58;46.08;;;25.63;;
19891;SDS011;10108;50.142;8.724;2023-05-02T06:17:24;41.78;;;25.42;;
19891;SDS011;10108;50.142;8.724;2023-05-02T06:19:51;37.17;;;24.77;;
19891;SDS011;10108;50.142;8.724;2023-05-02T06:22:17;40.22;;;24.70;;
19891;SDS011;10108;50.142;8.724;2023-05-02T06:24:43;37.30;;;23.48;;
19891;SDS011;10108;50.142;8.724;2023-05-02T06:27:09;42.85;;;23.80;;
19891;SDS011;10108;50.142;8.724;2023-05-02T06:29:36;38.88;;;23.85;;
19891;SDS011;10108;50.142;8.724;2023-05-02T06:32:02;38.33;;;23.75;;
19891;SDS011;10108;50.142;8.724;2023-05-02T06:34:30;36.80;;;24.13;;
19891;SDS011;10108;50.142;8.724;2023-05-02T06:36:58;38.92;;;23.35;;
19891;SDS011;10108;50.142;8.724;2023-05-02T06:39:24;38.45;;;23.17;;
19891;SDS011;10108;50.142;8.724;2023-05-02T06:41:50;36.85;;;22.48;;
19891;SDS011;10108;50.142;8.724;2023-05-02T06:44:20;37.97;;;23.45;;
19891;SDS011;10108;50.142;8.724;2023-05-02T06:46:47;38.78;;;24.23;;
19891;SDS011;10108;50.142;8.724;2023-05-02T06:49:13;41.13;;;22.92;;
19891;SDS011;10108;50.142;8.724;2023-05-02T06:51:39;35.58;;;22.35;;
19891;SDS011;10108;50.142;8.724;2023-05-02T06:54:05;37.75;;;22.65;;
19891;SDS011;10108;50.142;8.724;2023-05-02T06:56:31;38.58;;;22.60;;
19891;SDS011;10108;50.142;8.724;2023-05-02T06:58:57;37.53;;;22.90;;
19891;SDS011;10108;50.142;8.724;2023-05-02T07:01:24;34.72;;;21.40;;
19891;SDS011;10108;50.142;8.724;2023-05-02T07:03:50;37.30;;;21.85;;
19891;SDS011;10108;50.142;8.724;2023-05-02T07:06:17;36.67;;;21.67;;
19891;SDS011;10108;50.142;8.724;2023-05-02T07:08:43;35.22;;;21.10;;
19891;SDS011;10108;50.142;8.724;2023-05-02T07:11:09;37.67;;;23.25;;
19891;SDS011;10108;50.142;8.724;2023-05-02T07:13:35;35.88;;;21.38;;
19891;SDS011;10108;50.142;8.724;2023-05-02T07:16:01;35.53;;;21.83;;
19891;SDS011;10108;50.142;8.724;2023-05-02T07:18:27;36.53;;;21.13;;
19891;SDS011;10108;50.142;8.724;2023-05-02T07:20:54;34.08;;;21.40;;
19891;SDS011;10108;50.142;8.724;2023-05-02T07:23:21;36.17;;;22.13;;
19891;SDS011;10108;50.142;8.724;2023-05-02T07:25:47;36.45;;;21.13;;
19891;SDS011;10108;50.142;8.724;2023-05-02T07:28:13;31.73;;;20.13;;
19891;SDS011;10108;50.142;8.724;2023-05-02T07:30:39;36.33;;;21.35;;
19891;SDS011;10108;50.142;8.724;2023-05-02T07:33:05;36.78;;;20.98;;
19891;SDS011;10108;50.142;8.724;2023-05-02T07:35:31;31.17;;;19.40;;
19891;SDS011;10108;50.142;8.724;2023-05-02T07:37:58;31.90;;;19.40;;
19891;SDS011;10108;50.142;8.724;2023-05-02T07:40:24;31.45;;;18.15;;
19891;SDS011;10108;50.142;8.724;2023-05-02T07:42:50;28.42;;;17.55;;
19891;SDS011;10108;50.142;8.724;2023-05-02T07:45:16;30.67;;;17.85;;
19891;SDS011;10108;50.142;8.724;2023-05-02T07:47:43;30.85;;;18.05;;
19891;SDS011;10108;50.142;8.724;2023-05-02T07:50:10;28.48;;;16.35;;
19891;SDS011;10108;50.142;8.724;2023-05-02T07:52:36;27.98;;;17.23;;
19891;SDS011;10108;50.142;8.724;2023-05-02T07:55:02;26.13;;;16.88;;
19891;SDS011;10108;50.142;8.724;2023-05-02T07:57:29;31.85;;;17.90;;
19891;SDS011;10108;50.142;8.724;2023-05-02T07:59:56;34.25;;;20.77;;
19891;SDS011;10108;50.142;8.724;2023-05-02T08:02:22;33.22;;;19.73;;
19891;SDS011;10108;50.142;8.724;2023-05-02T08:04:48;33.10;;;18.83;;
19891;SDS011;10108;50.142;8.724;2023-05-02T08:07:14;35.35;;;20.63;;
19891;SDS011;10108;50.142;8.724;2023-05-02T08:09:41;35.55;;;20.42;;
19891;SDS011;10108;50.142;8.724;2023-05-02T08:12:07;34.78;;;21.50;;
19891;SDS011;10108;50.142;8.724;2023-05-02T08:14:33;35.65;;;20.10;;
19891;SDS011;10108;50.142;8.724;2023-05-02T08:16:59;33.05;;;20.73;;
19891;SDS011;10108;50.142;8.724;2023-05-02T08:19:26;34.60;;;19.42;;
19891;SDS011;10108;50.142;8.724;2023-05-02T08:21:53;30.35;;;19.35;;
19891;SDS011;10108;50.142;8.724;2023-05-02T08:24:19;34.33;;;19.50;;
19891;SDS011;10108;50.142;8.724;2023-05-02T08:26:46;33.17;;;18.80;;
19891;SDS011;10108;50.142;8.724;2023-05-02T08:29:12;28.67;;;17.38;;
19891;SDS011;10108;50.142;8.724;2023-05-02T08:31:39;32.85;;;18.40;;
19891;SDS011;10108;50.142;8.724;2023-05-02T08:34:05;31.25;;;17.60;;
19891;SDS011;10108;50.142;8.724;2023-05-02T08:36:31;29.17;;;16.13;;
19891;SDS011;10108;50.142;8.724;2023-05-02T08:38:58;25.27;;;15.68;;
19891;SDS011;10108;50.142;8.724;2023-05-02T08:41:24;26.90;;;15.50;;
19891;SDS011;10108;50.142;8.724;2023-05-02T08:43:53;25.95;;;16.00;;
19891;SDS011;10108;50.142;8.724;2023-05-02T08:46:21;27.55;;;15.93;;
19891;SDS011;10108;50.142;8.724;2023-05-02T08:48:47;29.20;;;17.00;;
19891;SDS011;10108;50.142;8.724;2023-05-02T08:51:16;31.30;;;18.27;;
19891;SDS011;10108;50.142;8.724;2023-05-02T08:53:42;30.30;;;18.25;;
19891;SDS011;10108;50.142;8.724;2023-05-02T08:56:10;35.72;;;19.73;;
19891;SDS011;10108;50.142;8.724;2023-05-02T08:58:37;33.30;;;18.95;;
19891;SDS011;10108;50.142;8.724;2023-05-02T09:01:22;32.40;;;18.63;;
19891;SDS011;10108;50.142;8.724;2023-05-02T09:03:52;33.05;;;19.02;;
19891;SDS011;10108;50.142;8.724;2023-05-02T09:06:20;33.20;;;17.58;;
19891;SDS011;10108;50.142;8.724;2023-05-02T09:08:48;27.67;;;17.10;;
19891;SDS011;10108;50.142;8.724;2023-05-02T09:11:17;24.33;;;15.70;;
19891;SDS011;10108;50.142;8.724;2023-05-02T09:13:46;27.13;;;16.48;;
19891;SDS011;10108;50.142;8.724;2023-05-02T09:18:48;31.13;;;17.17;;
19891;SDS011;10108;50.142;8.724;2023-05-02T09:21:16;26.60;;;16.23;;
19891;SDS011;10108;50.142;8.724;2023-05-02T09:23:44;31.60;;;17.00;;
19891;SDS011;10108;50.142;8.724;2023-05-02T09:26:14;28.58;;;17.13;;
19891;SDS011;10108;50.142;8.724;2023-05-02T09:28:48;27.88;;;16.58;;
19891;SDS011;10108;50.142;8.724;2023-05-02T09:31:17;34.15;;;17.52;;
19891;SDS011;10108;50.142;8.724;2023-05-02T09:33:51;32.70;;;17.98;;
19891;SDS011;10108;50.142;8.724;2023-05-02T09:36:18;32.22;;;16.48;;
19891;SDS011;10108;50.142;8.724;2023-05-02T09:38:47;26.17;;;15.80;;
19891;SDS011;10108;50.142;8.724;2023-05-02T09:41:13;30.38;;;16.10;;
19891;SDS011;10108;50.142;8.724;2023-05-02T09:43:42;27.88;;;14.48;;
19891;SDS011;10108;50.142;8.724;2023-05-02T09:46:09;24.83;;;13.30;;
19891;SDS011;10108;50.142;8.724;2023-05-02T09:51:35;23.73;;;13.73;;
19891;SDS011;10108;50.142;8.724;2023-05-02T09:54:02;24.90;;;14.52;;
19891;SDS011;10108;50.142;8.724;2023-05-02T09:56:28;25.90;;;14.80;;
19891;SDS011;10108;50.142;8.724;2023-05-02T09:59:13;26.60;;;14.05;;
19891;SDS011;10108;50.142;8.724;2023-05-02T10:01:41;23.88;;;14.40;;
19891;SDS011;10108;50.142;8.724;2023-05-02T10:04:11;22.23;;;13.82;;
19891;SDS011;10108;50.142;8.724;2023-05-02T10:06:43;25.42;;;14.40;;
19891;SDS011;10108;50.142;8.724;2023-05-02T10:09:11;24.40;;;14.90;;
19891;SDS011;10108;50.142;8.724;2023-05-02T10:11:42;28.63;;;15.57;;
19891;SDS011;10108;50.142;8.724;2023-05-02T10:14:11;26.17;;;15.30;;
19891;SDS011;10108;50.142;8.724;2023-05-02T10:16:40;27.10;;;15.20;;
19891;SDS011;10108;50.142;8.724;2023-05-02T10:19:32;23.70;;;14.10;;
19891;SDS011;10108;50.142;8.724;2023-05-02T10:22:14;23.67;;;13.38;;
19891;SDS011;10108;50.142;8.724;2023-05-02T10:24:47;24.25;;;12.85;;
19891;SDS011;10108;50.142;8.724;2023-05-02T10:27:14;22.70;;;12.82;;
19891;SDS011;10108;50.142;8.724;2023-05-02T10:29:41;18.38;;;11.15;;
19891;SDS011;10108;50.142;8.724;2023-05-02T10:32:07;21.52;;;12.35;;
19891;SDS011;10108;50.142;8.724;2023-05-02T10:34:34;21.73;;;12.82;;
19891;SDS011;10108;50.142;8.724;2023-05-02T10:37:01;21.98;;;13.65;;
19891;SDS011;10108;50.142;8.724;2023-05-02T10:39:28;21.65;;;12.45;;
19891;SDS011;10108;50.142;8.724;2023-05-02T10:41:56;23.92;;;13.15;;
19891;SDS011;10108;50.142;8.724;2023-05-02T10:44:35;21.48;;;12.77;;
19891;SDS011;10108;50.142;8.724;2023-05-02T10:47:22;20.92;;;12.48;;
19891;SDS011;10108;50.142;8.724;2023-05-02T10:55:12;18.48;;;11.52;;
19891;SDS011;10108;50.142;8.724;2023-05-02T11:00:23;17.10;;;10.90;;
19891;SDS011;10108;50.142;8.724;2023-05-02T11:02:50;18.00;;;11.07;;
19891;SDS011;10108;50.142;8.724;2023-05-02T11:05:16;13.85;;;9.77;;
19891;SDS011;10108;50.142;8.724;2023-05-02T11:07:43;16.88;;;10.55;;
19891;SDS011;10108;50.142;8.724;2023-05-02T11:15:14;14.25;;;9.52;;
19891;SDS011;10108;50.142;8.724;2023-05-02T11:18:06;15.55;;;9.55;;
19891;SDS011;10108;50.142;8.724;2023-05-02T11:20:39;16.17;;;9.23;;
19891;SDS011;10108;50.142;8.724;2023-05-02T11:25:39;13.02;;;8.90;;
19891;SDS011;10108;50.142;8.724;2023-05-02T11:28:38;13.48;;;8.25;;
19891;SDS011;10108;50.142;8.724;2023-05-02T11:31:06;12.57;;;8.23;;
19891;SDS011;10108;50.142;8.724;2023-05-02T11:33:35;11.85;;;8.02;;
19891;SDS011;10108;50.142;8.724;2023-05-02T11:36:01;12.50;;;8.65;;
19891;SDS011;10108;50.142;8.724;2023-05-02T11:38:34;13.38;;;8.73;;
19891;SDS011;10108;50.142;8.724;2023-05-02T11:41:02;12.13;;;7.65;;
19891;SDS011;10108;50.142;8.724;2023-05-02T11:43:29;12.05;;;7.32;;
19891;SDS011;10108;50.142;8.724;2023-05-02T11:45:56;8.93;;;6.85;;
19891;SDS011;10108;50.142;8.724;2023-05-02T11:48:24;9.18;;;6.88;;
19891;SDS011;10108;50.142;8.724;2023-05-02T11:53:22;12.25;;;7.15;;
19891;SDS011;10108;50.142;8.724;2023-05-02T11:58:25;9.70;;;6.90;;
19891;SDS011;10108;50.142;8.724;2023-05-02T12:00:57;9.02;;;6.75;;
19891;SDS011;10108;50.142;8.724;2023-05-02T12:03:30;9.18;;;6.88;;
19891;SDS011;10108;50.142;8.724;2023-05-02T12:06:13;9.73;;;6.90;;
19891;SDS011;10108;50.142;8.724;2023-05-02T12:08:43;10.55;;;6.88;;
19891;SDS011;10108;50.142;8.724;2023-05-02T12:11:11;12.77;;;6.72;;
19891;SDS011;10108;50.142;8.724;2023-05-02T12:13:43;10.77;;;6.32;;
19891;SDS011;10108;50.142;8.724;2023-05-02T12:16:12;8.43;;;6.43;;
19891;SDS011;10108;50.142;8.724;2023-05-02T12:18:38;11.98;;;7.50;;
19891;SDS011;10108;50.142;8.724;2023-05-02T12:21:04;11.25;;;7.30;;
19891;SDS011;10108;50.142;8.724;2023-05-02T12:23:30;8.15;;;6.60;;
19891;SDS011;10108;50.142;8.724;2023-05-02T12:25:57;9.13;;;6.53;;
19891;SDS011;10108;50.142;8.724;2023-05-02T12:28:24;8.88;;;6.88;;
19891;SDS011;10108;50.142;8.724;2023-05-02T12:30:50;11.20;;;6.85;;
19891;SDS011;10108;50.142;8.724;2023-05-02T12:33:17;9.40;;;7.10;;
19891;SDS011;10108;50.142;8.724;2023-05-02T12:35:43;10.40;;;6.93;;
19891;SDS011;10108;50.142;8.724;2023-05-02T12:38:13;10.63;;;6.70;;
19891;SDS011;10108;50.142;8.724;2023-05-02T12:40:49;9.82;;;6.97;;
19891;SDS011;10108;50.142;8.724;2023-05-02T12:43:17;9.55;;;7.25;;
19891;SDS011;10108;50.142;8.724;2023-05-02T12:45:44;10.60;;;7.50;;
19891;SDS011;10108;50.142;8.724;2023-05-02T12:48:16;12.27;;;7.45;;
19891;SDS011;10108;50.142;8.724;2023-05-02T12:50:43;10.32;;;7.50;;
19891;SDS011;10108;50.142;8.724;2023-05-02T12:53:09;11.15;;;7.30;;
19891;SDS011;10108;50.142;8.724;2023-05-02T12:55:36;11.55;;;7.18;;
19891;SDS011;10108;50.142;8.724;2023-05-02T12:58:06;11.13;;;7.13;;
19891;SDS011;10108;50.142;8.724;2023-05-02T13:00:35;11.98;;;7.57;;
19891;SDS011;10108;50.142;8.724;2023-05-02T13:03:03;11.05;;;7.70;;
19891;SDS011;10108;50.142;8.724;2023-05-02T13:05:29;10.65;;;7.70;;
19891;SDS011;10108;50.142;8.724;2023-05-02T13:07:56;9.65;;;7.32;;
19891;SDS011;10108;50.142;8.724;2023-05-02T13:10:23;11.77;;;7.93;;
19891;SDS011;10108;50.142;8.724;2023-05-02T13:12:53;11.88;;;7.97;;
19891;SDS011;10108;50.142;8.724;2023-05-02T13:15:20;9.82;;;7.25;;
19891;SDS011;10108;50.142;8.724;2023-05-02T13:17:46;12.05;;;7.35;;
19891;SDS011;10108;50.142;8.724;2023-05-02T13:20:14;12.15;;;8.10;;
19891;SDS011;10108;50.142;8.724;2023-05-02T13:22:40;13.20;;;8.27;;
19891;SDS011;10108;50.142;8.724;2023-05-02T13:25:06;12.25;;;7.93;;
19891;SDS011;10108;50.142;8.724;2023-05-02T13:27:34;11.95;;;8.00;;
19891;SDS011;10108;50.142;8.724;2023-05-02T13:30:01;12.07;;;8.18;;
19891;SDS011;10108;50.142;8.724;2023-05-02T13:32:28;11.23;;;8.05;;
19891;SDS011;10108;50.142;8.724;2023-05-02T13:34:54;11.38;;;7.93;;
19891;SDS011;10108;50.142;8.724;2023-05-02T13:37:21;11.68;;;8.38;;
19891;SDS011;10108;50.142;8.724;2023-05-02T13:39:47;11.82;;;8.02;;
19891;SDS011;10108;50.142;8.724;2023-05-02T13:42:13;10.85;;;7.82;;
19891;SDS011;10108;50.142;8.724;2023-05-02T13:44:40;13.30;;;8.55;;
19891;SDS011;10108;50.142;8.724;2023-05-02T13:47:06;10.65;;;7.90;;
19891;SDS011;10108;50.142;8.724;2023-05-02T13:49:32;12.93;;;8.05;;
19891;SDS011;10108;50.142;8.724;2023-05-02T13:51:58;11.48;;;7.93;;
19891;SDS011;10108;50.142;8.724;2023-05-02T13:54:24;10.27;;;7.82;;
19891;SDS011;10108;50.142;8.724;2023-05-02T13:56:51;13.45;;;7.65;;
19891;SDS011;10108;50.142;8.724;2023-05-02T13:59:17;11.63;;;8.30;;
19891;SDS011;10108;50.142;8.724;2023-05-02T14:01:44;9.63;;;7.55;;
19891;SDS011;10108;50.142;8.724;2023-05-02T14:04:10;9.68;;;7.75;;
19891;SDS011;10108;50.142;8.724;2023-05-02T14:06:36;12.82;;;7.80;;
19891;SDS011;10108;50.142;8.724;2023-05-02T14:09:02;10.60;;;7.95;;
19891;SDS011;10108;50.142;8.724;2023-05-02T14:11:29;10.80;;;7.72;;
19891;SDS011;10108;50.142;8.724;2023-05-02T14:13:55;10.98;;;7.65;;
19891;SDS011;10108;50.142;8.724;2023-05-02T14:16:22;10.73;;;7.70;;
19891;SDS011;10108;50.142;8.724;2023-05-02T14:18:49;10.90;;;7.70;;
19891;SDS011;10108;50.142;8.724;2023-05-02T14:21:15;9.43;;;7.10;;
19891;SDS011;10108;50.142;8.724;2023-05-02T14:23:41;11.85;;;8.02;;
19891;SDS011;10108;50.142;8.724;2023-05-02T14:26:07;10.10;;;7.70;;
19891;SDS011;10108;50.142;8.724;2023-05-02T14:28:34;10.50;;;8.27;;
19891;SDS011;10108;50.142;8.724;2023-05-02T14:31:00;11.55;;;8.38;;
19891;SDS011;10108;50.142;8.724;2023-05-02T14:33:26;12.32;;;8.10;;
19891;SDS011;10108;50.142;8.724;2023-05-02T14:35:52;11.13;;;7.88;;
19891;SDS011;10108;50.142;8.724;2023-05-02T14:38:18;11.48;;;8.65;;
19891;SDS011;10108;50.142;8.724;2023-05-02T14:40:44;10.95;;;8.70;;
19891;SDS011;10108;50.142;8.724;2023-05-02T14:43:11;12.68;;;8.32;;
19891;SDS011;10108;50.142;8.724;2023-05-02T14:45:37;12.70;;;8.77;;
19891;SDS011;10108;50.142;8.724;2023-05-02T14:48:03;13.02;;;8.43;;
19891;SDS011;10108;50.142;8.724;2023-05-02T14:50:29;12.45;;;8.73;;
19891;SDS011;10108;50.142;8.724;2023-05-02T14:52:55;11.45;;;8.70;;
19891;SDS011;10108;50.142;8.724;2023-05-02T14:55:21;11.48;;;8.20;;
19891;SDS011;10108;50.142;8.724;2023-05-02T14:57:47;12.40;;;8.30;;
19891;SDS011;10108;50.142;8.724;2023-05-02T15:00:14;12.60;;;8.15;;
19891;SDS011;10108;50.142;8.724;2023-05-02T15:02:40;11.55;;;8.23;;
19891;SDS011;10108;50.142;8.724;2023-05-02T15:05:07;13.25;;;8.48;;
19891;SDS011;10108;50.142;8.724;2023-05-02T15:07:39;11.82;;;8.60;;
19891;SDS011;10108;50.142;8.724;2023-05-02T15:10:05;10.90;;;8.48;;
19891;SDS011;10108;50.142;8.724;2023-05-02T15:12:32;11.20;;;8.30;;
19891;SDS011;10108;50.142;8.724;2023-05-02T15:14:58;13.25;;;9.07;;
19891;SDS011;10108;50.142;8.724;2023-05-02T15:17:24;13.23;;;8.80;;
19891;SDS011;10108;50.142;8.724;2023-05-02T15:19:51;12.15;;;8.75;;